PWSweather.com
Personal Weather Stations
Station Observations
WATERF01
WaterfordIE

WaterfordIE

Lat: 52.2412507, Lon: -7.1414691

Elevation: 65

Station Type: Davis Vantage Vue

Latest ConditionsUpdated 4:00:02 AM GMT Monday, Jun 27, 2016
Currently Today's Max Today's Min Today's Average
Temperature 53.4°F11.9°C 58.0°F14.4°C 53.4°F11.9°C 55.9°F13.3°C
Dew Point 49.3°F9.6°C 52.9°F11.6°C 49.3°F9.6°C 51.3°F10.7°C
Winds Calm Calm 6.9 mph W11.1 kmh W - 2.8 mph 4.5 kmh
Wind Gusts -- 11.5 mph18.5 kmh - -
Humidity 86% 86% 82% 85%
Pressure 30.10 in1019.3 mb 30.10 in1019.3 mb 30.07 in1018.3 mb -
Hour Temp Dew Point Humidity Winds Wind Gusts Pressure Precip Precip Rate Daily Precip Total
04:00 AM 53.4°F11.9°C 49.3°F9.6°C 86% Calm Calm -- 30.10 in1019.3 mb - 0.00 in0.0 mm 0.00 in0.0 mm
03:50 AM 53.7°F12.1°C 49.6°F9.8°C 86% 1.2 mph W1.9 kmh W 4.6 mph7.4 kmh 30.10 in1019.3 mb - 0.00 in0.0 mm 0.00 in0.0 mm
03:40 AM 53.8°F12.1°C 49.8°F9.9°C 86% 1.2 mph W1.9 kmh W 2.3 mph3.7 kmh 30.10 in1019.3 mb - 0.00 in0.0 mm 0.00 in0.0 mm
03:30 AM 54.2°F12.3°C 49.8°F9.9°C 85% 3.5 mph W5.6 kmh W 5.8 mph9.3 kmh 30.10 in1019.3 mb - 0.00 in0.0 mm 0.00 in0.0 mm
03:20 AM 54.3°F12.4°C 49.9°F9.9°C 85% 1.2 mph WNW1.9 kmh WNW 5.8 mph9.3 kmh 30.10 in1019.3 mb - 0.00 in0.0 mm 0.00 in0.0 mm
03:10 AM 54.3°F12.4°C 50.2°F10.1°C 86% 2.3 mph W3.7 kmh W 5.8 mph9.3 kmh 30.09 in1019.0 mb - 0.00 in0.0 mm 0.00 in0.0 mm
03:00 AM 54.6°F12.6°C 50.5°F10.3°C 86% 4.6 mph WNW7.4 kmh WNW 6.9 mph11.1 kmh 30.09 in1019.0 mb - 0.00 in0.0 mm 0.00 in0.0 mm
02:50 AM 54.8°F12.7°C 50.7°F10.4°C 86% 1.2 mph W1.9 kmh W 2.3 mph3.7 kmh 30.09 in1019.0 mb - 0.00 in0.0 mm 0.00 in0.0 mm
02:40 AM 55.1°F12.8°C 51.0°F10.6°C 86% 2.3 mph W3.7 kmh W 5.8 mph9.3 kmh 30.09 in1019.0 mb - 0.00 in0.0 mm 0.00 in0.0 mm
02:30 AM 55.2°F12.9°C 51.0°F10.6°C 86% 3.5 mph W5.6 kmh W 5.8 mph9.3 kmh 30.08 in1018.6 mb - 0.00 in0.0 mm 0.00 in0.0 mm
02:20 AM 55.3°F12.9°C 51.2°F10.7°C 86% 2.3 mph W3.7 kmh W 5.8 mph9.3 kmh 30.08 in1018.6 mb - 0.00 in0.0 mm 0.00 in0.0 mm
02:10 AM 55.7°F13.2°C 51.3°F10.7°C 85% 1.2 mph W1.9 kmh W 5.8 mph9.3 kmh 30.08 in1018.6 mb - 0.00 in0.0 mm 0.00 in0.0 mm
02:00 AM 56.0°F13.3°C 51.5°F10.8°C 85% 2.3 mph W3.7 kmh W 5.8 mph9.3 kmh 30.08 in1018.6 mb - 0.00 in0.0 mm 0.00 in0.0 mm
01:50 AM 56.3°F13.5°C 51.8°F11.0°C 85% 2.3 mph W3.7 kmh W 2.3 mph3.7 kmh 30.08 in1018.6 mb - 0.00 in0.0 mm 0.00 in0.0 mm
01:40 AM 56.4°F13.6°C 51.9°F11.1°C 85% 3.5 mph NW5.6 kmh NW 5.8 mph9.3 kmh 30.08 in1018.6 mb - 0.00 in0.0 mm 0.00 in0.0 mm
01:30 AM 56.7°F13.7°C 52.2°F11.2°C 85% 1.2 mph W1.9 kmh W 2.3 mph3.7 kmh 30.08 in1018.6 mb - 0.00 in0.0 mm 0.00 in0.0 mm
01:20 AM 56.8°F13.8°C 52.0°F11.1°C 84% Calm Calm 2.3 mph3.7 kmh 30.08 in1018.6 mb - 0.00 in0.0 mm 0.00 in0.0 mm
01:10 AM 57.1°F13.9°C 52.0°F11.1°C 83% 3.5 mph W5.6 kmh W 5.8 mph9.3 kmh 30.07 in1018.3 mb - 0.00 in0.0 mm 0.00 in0.0 mm
01:00 AM 57.5°F14.2°C 52.0°F11.1°C 82% 3.5 mph W5.6 kmh W 9.2 mph14.8 kmh 30.07 in1018.3 mb - 0.00 in0.0 mm 0.00 in0.0 mm
12:50 AM 57.7°F14.3°C 52.2°F11.2°C 82% 2.3 mph WNW3.7 kmh WNW 6.9 mph11.1 kmh 30.07 in1018.3 mb - 0.00 in0.0 mm 0.00 in0.0 mm
12:40 AM 57.8°F14.3°C 52.3°F11.3°C 82% 4.6 mph NW7.4 kmh NW 8.1 mph13.0 kmh 30.07 in1018.3 mb - 0.00 in0.0 mm 0.00 in0.0 mm
12:30 AM 57.9°F14.4°C 52.4°F11.3°C 82% 4.6 mph WNW7.4 kmh WNW 8.1 mph13.0 kmh 30.07 in1018.3 mb - 0.00 in0.0 mm 0.00 in0.0 mm
12:20 AM 57.9°F14.4°C 52.8°F11.6°C 83% 6.9 mph W11.1 kmh W 9.2 mph14.8 kmh 30.07 in1018.3 mb - 0.00 in0.0 mm 0.00 in0.0 mm
12:10 AM 58.0°F14.4°C 52.8°F11.6°C 83% 5.8 mph NW9.3 kmh NW 8.1 mph13.0 kmh 30.07 in1018.3 mb - 0.00 in0.0 mm 0.00 in0.0 mm
12:00 AM 58.0°F14.4°C 52.9°F11.6°C 83% 5.8 mph WNW9.3 kmh WNW 11.5 mph18.5 kmh 30.07 in1018.3 mb - 0.00 in0.0 mm 0.00 in0.0 mm